Time;durP1;ratioP1;P1;durP2;ratioP2;P2;SDS_P1;SDS_P2;PMS_P1;PMS_P2;Temp;Humidity;BMP_temperature;BMP_pressure;BME280_temperature;BME280_humidity;BME280_pressure;Samples;Min_cycle;Max_cycle;Signal;HPM_P1;HPM_P2
2021/07/19 00:00:19;;;;;;;0.40;0.40;;;;;;;18.27;72.42;97231.78;29397;216;63009;-68
2021/07/19 00:00:51;;;;;;;0.40;0.40;;;;;;;18.25;72.21;97223.84;29397;307;63006;-68
2021/07/19 00:01:22;;;;;;;0.30;0.30;;;;;;;18.26;71.87;97227.41;29397;224;63009;-68
2021/07/19 00:01:56;;;;;;;0.40;0.40;;;;;;;18.25;72.18;97231.28;29396;245;63004;-67
2021/07/19 00:02:27;;;;;;;0.40;0.40;;;;;;;18.25;72.29;97231.28;29396;237;63008;-67
2021/07/19 00:03:00;;;;;;;0.30;0.30;;;;;;;18.25;72.11;97225.81;29396;196;63004;-67
2021/07/19 00:03:31;;;;;;;0.30;0.30;;;;;;;18.23;72.03;97226.13;29396;210;63009;-66
2021/07/19 00:04:06;;;;;;;0.30;0.30;;;;;;;18.23;72.10;97223.38;29397;224;63005;-67
2021/07/19 00:04:44;;;;;;;0.30;0.30;;;;;;;18.21;71.85;97222.12;29396;202;64014;-67
2021/07/19 00:05:16;;;;;;;0.30;0.30;;;;;;;18.21;72.05;97224.84;29396;235;63005;-68
2021/07/19 00:05:48;;;;;;;0.32;0.32;;;;;;;18.19;72.26;97224.38;29396;199;63009;-67
2021/07/19 00:06:19;;;;;;;0.40;0.40;;;;;;;18.18;72.37;97226.31;29396;224;63005;-67
2021/07/19 00:06:52;;;;;;;0.30;0.30;;;;;;;18.20;72.51;97221.31;29396;199;63009;-62
2021/07/19 00:07:23;;;;;;;0.40;0.40;;;;;;;18.20;72.60;97228.75;29396;220;63004;-67
2021/07/19 00:07:56;;;;;;;0.40;0.40;;;;;;;18.20;72.16;97228.75;29396;286;63009;-66
2021/07/19 00:08:28;;;;;;;0.30;0.30;;;;;;;18.19;72.15;97227.13;29396;224;63004;-69
2021/07/19 00:08:59;;;;;;;0.40;0.40;;;;;;;18.19;72.40;97227.13;29396;214;63009;-68
2021/07/19 00:09:31;;;;;;;0.30;0.30;;;;;;;18.18;72.26;97231.00;29396;294;63010;-67
2021/07/19 00:10:05;;;;;;;0.30;0.30;;;;;;;18.19;72.25;97224.38;29395;291;64013;-68
2021/07/19 00:10:38;;;;;;;0.30;0.30;;;;;;;18.18;72.35;97225.53;29396;210;63005;-68
2021/07/19 00:11:10;;;;;;;0.40;0.40;;;;;;;18.17;72.25;97223.91;29396;200;63009;-68
2021/07/19 00:11:43;;;;;;;0.40;0.40;;;;;;;18.15;72.34;97231.69;29396;198;63005;-68
2021/07/19 00:12:17;;;;;;;0.40;0.40;;;;;;;18.14;72.30;97228.13;29396;202;63009;-61
2021/07/19 00:12:49;;;;;;;0.40;0.40;;;;;;;18.13;72.70;97226.53;29396;291;63005;-67
2021/07/19 00:13:20;;;;;;;0.35;0.35;;;;;;;18.13;72.75;97231.22;29396;203;63009;-68
2021/07/19 00:13:51;;;;;;;0.40;0.40;;;;;;;18.11;72.86;97231.53;29396;197;63005;-67
2021/07/19 00:14:22;;;;;;;0.40;0.40;;;;;;;18.11;72.67;97225.25;29396;222;63009;-67
2021/07/19 00:14:53;;;;;;;0.40;0.40;;;;;;;18.11;72.70;97233.47;29396;235;63004;-68
2021/07/19 00:15:27;;;;;;;0.37;0.37;;;;;;;18.07;72.60;97225.09;29395;196;64006;-68
2021/07/19 00:15:58;;;;;;;0.40;0.40;;;;;;;18.07;72.73;97228.66;29396;209;63004;-67
2021/07/19 00:16:30;;;;;;;0.30;0.30;;;;;;;18.06;72.91;97229.78;29396;205;63009;-67
2021/07/19 00:17:02;;;;;;;0.30;0.30;;;;;;;18.04;72.87;97226.56;29396;234;63004;-67
2021/07/19 00:17:34;;;;;;;0.40;0.40;;;;;;;18.04;73.24;97229.31;29396;224;63008;-67
2021/07/19 00:18:05;;;;;;;0.40;0.40;;;;;;;18.04;73.10;97223.81;29396;202;63004;-68
2021/07/19 00:18:36;;;;;;;0.30;0.30;;;;;;;18.04;73.23;97228.50;29396;314;63009;-68
2021/07/19 00:19:07;;;;;;;0.40;0.40;;;;;;;18.02;73.09;97226.09;29396;223;63005;-61
2021/07/19 00:19:39;;;;;;;0.40;0.40;;;;;;;18.01;73.12;97227.25;29396;218;63009;-68
2021/07/19 00:20:13;;;;;;;0.40;0.40;;;;;;;18.01;73.07;97229.19;29396;202;63005;-67
2021/07/19 00:20:44;;;;;;;0.40;0.40;;;;;;;18.00;73.05;97220.16;29395;212;64029;-67
2021/07/19 00:21:16;;;;;;;0.40;0.40;;;;;;;18.00;73.13;97225.66;29396;249;63005;-67
2021/07/19 00:21:50;;;;;;;0.30;0.30;;;;;;;18.00;73.19;97225.66;29396;238;63009;-67
2021/07/19 00:22:22;;;;;;;0.40;0.40;;;;;;;18.00;73.13;97227.59;29396;198;63004;-67
2021/07/19 00:22:53;;;;;;;0.40;0.40;;;;;;;18.00;72.99;97222.09;29396;208;63009;-68
2021/07/19 00:23:26;;;;;;;0.40;0.40;;;;;;;18.02;73.01;97228.84;29396;268;63004;-67
2021/07/19 00:23:57;;;;;;;0.40;0.40;;;;;;;18.03;73.22;97230.44;29396;254;63009;-67
2021/07/19 00:24:29;;;;;;;0.40;0.40;;;;;;;18.03;73.04;97229.66;29396;244;63004;-67
2021/07/19 00:25:00;;;;;;;0.30;0.30;;;;;;;18.01;72.95;97224.50;29396;202;63008;-67
2021/07/19 00:25:31;;;;;;;0.40;0.40;;;;;;;18.00;72.93;97222.09;29396;201;63004;-67
2021/07/19 00:26:03;;;;;;;0.30;0.30;;;;;;;17.99;73.04;97223.25;29395;220;64014;-68
2021/07/19 00:26:34;;;;;;;0.40;0.40;;;;;;;17.97;73.22;97228.25;29396;209;63005;-68
2021/07/19 00:27:05;;;;;;;0.40;0.40;;;;;;;17.96;73.29;97235.69;29396;197;63009;-67
2021/07/19 00:27:37;;;;;;;0.30;0.30;;;;;;;17.95;73.08;97228.59;29396;207;63005;-67
2021/07/19 00:28:08;;;;;;;0.37;0.37;;;;;;;17.95;73.12;97228.59;29396;285;63009;-67
2021/07/19 00:28:39;;;;;;;0.40;0.40;;;;;;;17.94;73.22;97232.47;29396;208;63005;-68
2021/07/19 00:29:11;;;;;;;0.30;0.30;;;;;;;17.96;73.33;97235.69;29396;263;63009;-67
2021/07/19 00:29:42;;;;;;;0.35;0.35;;;;;;;17.94;73.27;97224.22;29396;205;63005;-67
2021/07/19 00:30:15;;;;;;;0.40;0.40;;;;;;;17.94;73.10;97232.47;29395;210;64013;-67
2021/07/19 00:30:47;;;;;;;0.30;0.30;;;;;;;17.95;73.51;97234.06;29396;296;63004;-67
2021/07/19 00:31:20;;;;;;;0.32;0.32;;;;;;;17.94;73.63;97226.97;29396;212;63009;-67
2021/07/19 00:31:52;;;;;;;0.30;0.30;;;;;;;17.94;73.33;97232.47;29396;275;63004;-68
2021/07/19 00:32:23;;;;;;;0.40;0.40;;;;;;;17.93;73.42;97230.84;29396;236;63008;-68
2021/07/19 00:32:55;;;;;;;0.32;0.32;;;;;;;17.94;73.75;97226.16;29395;243;64008;-68
2021/07/19 00:33:26;;;;;;;0.30;0.30;;;;;;;17.93;73.51;97224.56;29396;235;63009;-67
2021/07/19 00:33:58;;;;;;;0.40;0.40;;;;;;;17.93;73.37;97233.59;29396;226;63005;-67
2021/07/19 00:34:29;;;;;;;0.40;0.40;;;;;;;17.91;73.46;97222.16;29395;221;64014;-67
2021/07/19 00:35:00;;;;;;;0.40;0.40;;;;;;;17.91;73.64;97227.63;29396;202;63005;-67
2021/07/19 00:35:32;;;;;;;0.40;0.40;;;;;;;17.89;73.77;97229.91;29396;234;63009;-69
2021/07/19 00:36:04;;;;;;;0.40;0.40;;;;;;;17.88;73.60;97228.31;29396;222;63005;-68
2021/07/19 00:36:35;;;;;;;0.40;0.40;;;;;;;17.89;73.64;97234.59;29396;204;63009;-67
2021/07/19 00:37:07;;;;;;;0.40;0.40;;;;;;;17.89;73.50;97229.91;29396;199;63005;-67
2021/07/19 00:37:39;;;;;;;0.40;0.40;;;;;;;17.89;73.90;97229.09;29396;224;63009;-68
2021/07/19 00:38:10;;;;;;;0.40;0.40;;;;;;;17.88;73.80;97225.56;29396;223;63016;-67
2021/07/19 00:38:42;;;;;;;0.40;0.40;;;;;;;17.89;73.87;97229.91;29395;202;64013;-67
2021/07/19 00:39:14;;;;;;;0.40;0.40;;;;;;;17.90;73.68;97233.47;29396;215;63004;-68
2021/07/19 00:39:46;;;;;;;0.40;0.40;;;;;;;17.89;73.81;97226.34;29396;196;63009;-68
2021/07/19 00:40:21;;;;;;;0.40;0.40;;;;;;;17.88;73.46;97228.31;29397;227;63004;-68
2021/07/19 00:40:52;;;;;;;0.32;0.32;;;;;;;17.89;73.73;97223.62;29396;206;63009;-67
2021/07/19 00:41:24;;;;;;;0.40;0.40;;;;;;;17.89;73.57;97223.62;29396;240;63005;-67
2021/07/19 00:41:55;;;;;;;0.40;0.40;;;;;;;17.87;73.79;97221.19;29396;202;63009;-67
2021/07/19 00:42:27;;;;;;;0.40;0.40;;;;;;;17.87;73.53;97226.69;29395;240;64009;-67
2021/07/19 00:42:59;;;;;;;0.40;0.40;;;;;;;17.86;73.50;97225.06;29396;214;63009;-66
2021/07/19 00:43:31;;;;;;;0.40;0.40;;;;;;;17.86;73.59;97225.06;29396;199;63005;-67
2021/07/19 00:44:04;;;;;;;0.30;0.30;;;;;;;17.85;73.97;97228.97;29396;207;63009;-68
2021/07/19 00:44:35;;;;;;;0.32;0.32;;;;;;;17.85;73.68;97220.72;29396;225;63005;-67
2021/07/19 00:45:15;;;;;;;0.40;0.40;;;;;;;17.85;73.89;97223.47;29396;218;63009;-67
2021/07/19 00:45:46;;;;;;;0.30;0.30;;;;;;;17.86;73.86;97229.75;29418;278;63004;-68
2021/07/19 00:46:18;;;;;;;0.30;0.30;;;;;;;17.85;74.01;97222.66;29396;235;63009;-67
2021/07/19 00:46:50;;;;;;;0.40;0.40;;;;;;;17.85;73.74;97217.97;29396;227;63004;-68
2021/07/19 00:47:22;;;;;;;0.30;0.30;;;;;;;17.85;73.77;97228.97;29396;219;63009;-68
2021/07/19 00:47:56;;;;;;;0.40;0.40;;;;;;;17.84;73.63;97221.84;29395;214;64008;-62
2021/07/19 00:48:27;;;;;;;0.30;0.30;;;;;;;17.85;73.81;97220.72;29396;219;63009;-68
2021/07/19 00:48:59;;;;;;;0.30;0.30;;;;;;;17.87;73.56;97221.19;29396;251;63005;-68
2021/07/19 00:49:34;;;;;;;0.30;0.30;;;;;;;17.87;73.67;97223.94;29396;223;63009;-68
2021/07/19 00:50:07;;;;;;;0.40;0.40;;;;;;;17.88;73.33;97217.31;29396;218;63005;-68
2021/07/19 00:50:40;;;;;;;0.30;0.30;;;;;;;17.87;73.33;97221.19;29396;227;63009;-68
2021/07/19 00:51:12;;;;;;;0.30;0.30;;;;;;;17.86;73.30;97219.59;29397;199;63005;-69
2021/07/19 00:51:43;;;;;;;0.30;0.30;;;;;;;17.86;73.45;97221.53;29397;222;63009;-67
2021/07/19 00:52:15;;;;;;;0.30;0.30;;;;;;;17.82;73.36;97212.34;29397;238;63004;-67
2021/07/19 00:52:56;;;;;;;0.40;0.40;;;;;;;17.84;73.50;97219.13;29397;284;63009;-68
2021/07/19 00:53:28;;;;;;;0.40;0.40;;;;;;;17.83;73.58;97209.28;29395;205;64009;-68
2021/07/19 00:54:00;;;;;;;0.30;0.30;;;;;;;17.82;73.73;97218.63;29397;196;63009;-67
2021/07/19 00:54:33;;;;;;;0.30;0.30;;;;;;;17.82;73.74;97212.34;29395;239;63004;-69
2021/07/19 00:55:07;;;;;;;0.40;0.40;;;;;;;17.81;74.05;97217.03;29395;206;63008;-68
2021/07/19 00:55:44;;;;;;;0.30;0.30;;;;;;;17.81;73.88;97211.53;29395;218;63004;-68
2021/07/19 00:56:18;;;;;;;0.30;0.30;;;;;;;17.81;73.98;97214.28;29396;223;63009;-67
2021/07/19 00:56:51;;;;;;;0.40;0.40;;;;;;;17.81;74.06;97210.72;29397;260;63005;-66
2021/07/19 00:57:23;;;;;;;0.40;0.40;;;;;;;17.81;73.88;97216.22;29396;248;63009;-62
2021/07/19 00:57:57;;;;;;;0.40;0.40;;;;;;;17.80;73.91;97211.87;29395;204;63005;-67
2021/07/19 00:58:30;;;;;;;0.40;0.40;;;;;;;17.79;74.06;97219.31;29393;224;64013;-60
2021/07/19 00:59:03;;;;;;;0.40;0.40;;;;;;;17.77;74.62;97215.28;29395;294;63005;-68
2021/07/19 00:59:36;;;;;;;0.40;0.40;;;;;;;17.75;74.65;97212.88;29395;235;63016;-67
2021/07/19 01:00:10;;;;;;;0.30;0.30;;;;;;;17.72;74.37;97208.03;29395;217;63004;-67
2021/07/19 01:00:45;;;;;;;0.40;0.40;;;;;;;17.72;74.67;97208.03;29395;273;63009;-68
2021/07/19 01:01:18;;;;;;;0.40;0.40;;;;;;;17.71;74.39;97211.91;29395;215;63004;-67
2021/07/19 01:01:52;;;;;;;0.40;0.40;;;;;;;17.71;74.70;97211.91;29395;235;63008;-68
2021/07/19 01:02:24;;;;;;;0.40;0.40;;;;;;;17.69;74.85;97208.69;29395;279;63004;-67
2021/07/19 01:02:57;;;;;;;0.40;0.40;;;;;;;17.66;74.94;97206.63;29395;212;63009;-59
2021/07/19 01:03:30;;;;;;;0.30;0.30;;;;;;;17.65;74.84;97216.81;29395;257;63005;-67
2021/07/19 01:04:02;;;;;;;0.30;0.30;;;;;;;17.65;75.13;97216.00;29393;239;64014;-67
2021/07/19 01:04:34;;;;;;;0.35;0.35;;;;;;;17.63;74.85;97208.06;29395;227;63005;-69
2021/07/19 01:05:08;;;;;;;0.40;0.40;;;;;;;17.61;75.22;97209.53;29395;216;63009;-67
2021/07/19 01:05:43;;;;;;;0.40;0.40;;;;;;;17.61;74.87;97206.78;29395;348;63005;-68
2021/07/19 01:06:19;;;;;;;0.40;0.40;;;;;;;17.60;75.21;97211.47;29395;227;63009;-69
2021/07/19 01:06:54;;;;;;;0.30;0.30;;;;;;;17.59;75.02;97209.06;29395;229;63010;-69
2021/07/19 01:07:27;;;;;;;0.40;0.40;;;;;;;17.59;75.21;97220.03;29395;238;63009;-60
2021/07/19 01:08:02;;;;;;;0.37;0.37;;;;;;;17.59;74.79;97211.81;29395;233;63004;-69
2021/07/19 01:08:36;;;;;;;0.40;0.40;;;;;;;17.57;75.10;97205.84;29395;208;63009;-68
2021/07/19 01:09:07;;;;;;;0.40;0.40;;;;;;;17.57;75.29;97211.31;29393;212;64009;-69
2021/07/19 01:09:39;;;;;;;0.40;0.40;;;;;;;17.56;74.96;97209.72;29395;248;63008;-68
2021/07/19 01:10:14;;;;;;;0.32;0.32;;;;;;;17.56;75.12;97210.53;29395;220;63009;-67
2021/07/19 01:10:48;;;;;;;0.40;0.40;;;;;;;17.56;75.17;97209.72;29395;233;63009;-67
2021/07/19 01:11:19;;;;;;;0.40;0.40;;;;;;;17.55;75.13;97210.84;29395;234;63016;-67
2021/07/19 01:11:51;;;;;;;0.40;0.40;;;;;;;17.54;74.87;97209.25;29395;275;63009;-67
2021/07/19 01:12:23;;;;;;;0.40;0.40;;;;;;;17.53;75.08;97211.19;29395;211;63005;-68
2021/07/19 01:12:56;;;;;;;0.40;0.40;;;;;;;17.53;75.24;97215.84;29395;225;63009;-68
2021/07/19 01:13:28;;;;;;;0.40;0.40;;;;;;;17.54;75.38;97217.47;29395;237;63009;-67
2021/07/19 01:14:00;;;;;;;0.40;0.40;;;;;;;17.51;75.13;97210.69;29393;254;64013;-68
2021/07/19 01:14:31;;;;;;;0.40;0.40;;;;;;;17.51;75.30;97218.94;29395;338;63004;-67
2021/07/19 01:15:06;;;;;;;0.30;0.30;;;;;;;17.50;75.12;97211.03;29395;284;63009;-68
2021/07/19 01:15:39;;;;;;;0.40;0.40;;;;;;;17.50;75.53;97211.84;29395;227;63004;-68
2021/07/19 01:16:11;;;;;;;0.40;0.40;;;;;;;17.50;75.33;97217.31;29395;293;63009;-69
2021/07/19 01:16:42;;;;;;;0.30;0.30;;;;;;;17.50;75.26;97213.78;29395;199;63004;-68
2021/07/19 01:17:14;;;;;;;0.32;0.32;;;;;;;17.49;75.40;97215.72;29395;220;63008;-67
2021/07/19 01:17:46;;;;;;;0.40;0.40;;;;;;;17.50;75.23;97216.50;29395;216;63005;-67
2021/07/19 01:18:18;;;;;;;0.40;0.40;;;;;;;17.49;75.17;97210.22;29395;216;63009;-67
2021/07/19 01:18:49;;;;;;;0.40;0.40;;;;;;;17.50;75.01;97216.50;29395;258;63005;-68
2021/07/19 01:19:22;;;;;;;0.40;0.40;;;;;;;17.50;75.23;97216.50;29393;212;64014;-67
2021/07/19 01:19:54;;;;;;;0.40;0.40;;;;;;;17.49;75.03;97215.72;29395;215;63005;-67
2021/07/19 01:21:17;;;;;;;0.40;0.40;;;;;;;17.50;75.27;97222.00;29395;198;63009;-67
2021/07/19 01:22:38;;;;;;;0.40;0.40;;;;;;;17.49;75.15;97212.16;29417;275;63005;-69
2021/07/19 01:24:06;;;;;;;0.40;0.40;;;;;;;17.47;75.35;97212.50;29373;233;63009;-68
2021/07/19 01:25:24;;;;;;;0.40;0.40;;;;;;;17.46;75.14;97210.06;29393;243;64008;-67
2021/07/19 01:26:40;;;;;;;0.40;0.40;;;;;;;17.47;74.92;97211.69;29395;203;63026;-68
2021/07/19 01:27:58;;;;;;;0.40;0.40;;;;;;;17.45;75.17;97213.94;29395;265;63005;-68
2021/07/19 01:28:51;;;;;;;0.40;0.40;;;;;;;17.43;74.83;97212.34;29394;208;64013;-67
2021/07/19 01:29:23;;;;;;;0.40;0.40;;;;;;;17.43;75.27;97211.53;29394;239;64009;-69
2021/07/19 01:29:57;;;;;;;0.40;0.40;;;;;;;17.41;75.51;97209.13;29395;219;63009;-68
2021/07/19 01:30:31;;;;;;;0.40;0.40;;;;;;;17.39;75.41;97211.37;29395;212;63004;-67
2021/07/19 01:31:10;;;;;;;0.40;0.40;;;;;;;17.39;75.51;97210.59;29395;198;63009;-68
2021/07/19 01:31:46;;;;;;;0.40;0.40;;;;;;;17.39;75.19;97211.37;29395;224;63004;-68
2021/07/19 01:32:19;;;;;;;0.40;0.40;;;;;;;17.41;75.33;97203.63;29395;202;63008;-67
2021/07/19 01:32:51;;;;;;;0.40;0.40;;;;;;;17.39;74.92;97205.91;29395;221;63005;-68
2021/07/19 01:33:25;;;;;;;0.40;0.40;;;;;;;17.39;75.04;97205.09;29395;234;63009;-68
2021/07/19 01:34:00;;;;;;;0.40;0.40;;;;;;;17.38;75.12;97206.22;29394;198;64009;-67
2021/07/19 01:34:33;;;;;;;0.40;0.40;;;;;;;17.37;75.07;97202.69;29394;237;64013;-69
2021/07/19 01:35:06;;;;;;;0.40;0.40;;;;;;;17.38;75.37;97206.22;29395;214;63005;-67
2021/07/19 01:35:44;;;;;;;0.40;0.40;;;;;;;17.37;75.05;97210.91;29395;294;63009;-68
2021/07/19 01:36:20;;;;;;;0.40;0.40;;;;;;;17.38;75.13;97208.97;29395;236;63005;-61
2021/07/19 01:37:00;;;;;;;0.40;0.40;;;;;;;17.38;75.02;97208.97;29394;222;64013;-68
2021/07/19 01:37:32;;;;;;;0.40;0.40;;;;;;;17.37;75.41;97204.63;29395;310;63004;-68
2021/07/19 01:38:06;;;;;;;0.40;0.40;;;;;;;17.37;75.14;97201.88;29395;213;63009;-68
2021/07/19 01:38:38;;;;;;;0.40;0.40;;;;;;;17.36;75.18;97206.56;29395;210;63012;-67
2021/07/19 01:39:10;;;;;;;0.40;0.40;;;;;;;17.36;75.18;97205.75;29395;197;63009;-68
2021/07/19 01:39:42;;;;;;;0.40;0.40;;;;;;;17.36;75.19;97198.31;29395;197;63004;-67
2021/07/19 01:40:16;;;;;;;0.40;0.40;;;;;;;17.37;75.27;97201.88;29394;222;64013;-67
2021/07/19 01:40:49;;;;;;;0.40;0.40;;;;;;;17.36;75.00;97201.06;29395;198;63005;-68
2021/07/19 01:41:22;;;;;;;0.40;0.40;;;;;;;17.35;75.35;97199.47;29395;231;63009;-67
2021/07/19 01:41:55;;;;;;;0.40;0.40;;;;;;;17.34;75.29;97206.06;29395;226;63005;-67
2021/07/19 01:42:27;;;;;;;0.40;0.40;;;;;;;17.34;75.29;97203.34;29395;274;63009;-67
2021/07/19 01:42:59;;;;;;;0.40;0.40;;;;;;;17.33;75.19;97201.72;29394;204;64009;-68
2021/07/19 01:43:31;;;;;;;0.40;0.40;;;;;;;17.32;75.37;97205.63;29395;204;63009;-67
2021/07/19 01:44:06;;;;;;;0.40;0.40;;;;;;;17.33;75.28;97190.75;29395;236;63005;-68
2021/07/19 01:44:38;;;;;;;0.40;0.40;;;;;;;17.32;75.53;97197.41;29394;202;64013;-67
2021/07/19 01:45:11;;;;;;;0.40;0.40;;;;;;;17.31;75.78;97195.78;29394;222;64009;-67
2021/07/19 01:45:42;;;;;;;0.40;0.40;;;;;;;17.31;75.68;97197.72;29395;210;63009;-67
2021/07/19 01:46:17;;;;;;;0.40;0.40;;;;;;;17.29;75.65;97205.47;29395;206;63004;-67
2021/07/19 01:46:51;;;;;;;0.40;0.40;;;;;;;17.29;75.66;97200.00;29395;205;63009;-68
2021/07/19 01:47:22;;;;;;;0.40;0.40;;;;;;;17.28;75.78;97204.69;29395;229;63004;-68
2021/07/19 01:47:55;;;;;;;0.40;0.40;;;;;;;17.27;75.91;97200.31;29395;202;63009;-59
2021/07/19 01:48:29;;;;;;;0.40;0.40;;;;;;;17.26;75.76;97201.44;29395;209;63005;-67
2021/07/19 01:49:05;;;;;;;0.40;0.40;;;;;;;17.26;76.09;97201.44;29395;199;63009;-67
2021/07/19 01:49:40;;;;;;;0.37;0.37;;;;;;;17.25;76.02;97199.03;29394;218;64009;-68
2021/07/19 01:50:13;;;;;;;0.30;0.30;;;;;;;17.23;76.42;97199.38;29395;312;63009;-68
2021/07/19 01:50:44;;;;;;;0.40;0.40;;;;;;;17.23;76.14;97206.78;29395;200;63005;-68
2021/07/19 01:51:17;;;;;;;0.40;0.40;;;;;;;17.22;76.46;97200.50;29395;249;63009;-66
2021/07/19 01:51:52;;;;;;;0.40;0.40;;;;;;;17.21;76.14;97206.31;29395;210;63004;-67
2021/07/19 01:52:25;;;;;;;0.40;0.40;;;;;;;17.20;76.38;97211.00;29395;213;63009;-67
2021/07/19 01:52:58;;;;;;;0.40;0.40;;;;;;;17.21;76.13;97209.06;29395;198;63004;-66
2021/07/19 01:53:30;;;;;;;0.40;0.40;;;;;;;17.19;76.34;97206.63;29395;211;63009;-66
2021/07/19 01:54:05;;;;;;;0.40;0.40;;;;;;;17.18;76.04;97202.28;29395;213;63004;-66
2021/07/19 01:54:38;;;;;;;0.40;0.40;;;;;;;17.17;76.35;97208.91;29394;221;64013;-66
2021/07/19 01:55:11;;;;;;;0.40;0.40;;;;;;;17.18;76.45;97205.03;29394;214;64008;-68
2021/07/19 01:55:44;;;;;;;0.40;0.40;;;;;;;17.17;76.35;97208.91;29395;210;63009;-66
2021/07/19 01:56:16;;;;;;;0.40;0.40;;;;;;;17.16;76.10;97207.28;29395;230;63005;-68
2021/07/19 01:56:50;;;;;;;0.40;0.40;;;;;;;17.16;76.38;97201.00;29395;300;63009;-68
2021/07/19 01:57:21;;;;;;;0.40;0.40;;;;;;;17.14;76.35;97206.81;29395;229;63005;-67
2021/07/19 01:57:53;;;;;;;0.40;0.40;;;;;;;17.14;76.61;97203.25;29395;221;63009;-67
2021/07/19 01:58:26;;;;;;;0.40;0.40;;;;;;;17.11;76.71;97204.72;29395;212;63005;-67
2021/07/19 01:58:59;;;;;;;0.40;0.40;;;;;;;17.10;76.59;97200.38;29395;254;63009;-67
2021/07/19 01:59:31;;;;;;;0.30;0.30;;;;;;;17.07;76.76;97199.09;29395;217;63004;-68
2021/07/19 02:00:06;;;;;;;0.35;0.35;;;;;;;17.08;76.79;97205.38;29394;216;64013;-61
2021/07/19 02:00:38;;;;;;;0.40;0.40;;;;;;;17.08;76.71;97202.63;29395;235;63004;-67
2021/07/19 02:01:10;;;;;;;0.30;0.30;;;;;;;17.08;76.75;97205.38;29395;196;63009;-67
2021/07/19 02:01:41;;;;;;;0.35;0.35;;;;;;;17.07;77.37;97203.75;29395;199;63004;-67
2021/07/19 02:02:16;;;;;;;0.40;0.40;;;;;;;17.05;76.74;97206.03;29395;205;63009;-67
2021/07/19 02:02:51;;;;;;;0.40;0.40;;;;;;;17.04;76.95;97198.94;29395;226;63005;-67
2021/07/19 02:03:23;;;;;;;0.40;0.40;;;;;;;17.04;77.04;97210.69;29394;229;64014;-70
2021/07/19 02:03:55;;;;;;;0.30;0.30;;;;;;;17.04;77.02;97198.94;29395;213;63005;-67
2021/07/19 02:04:27;;;;;;;0.37;0.37;;;;;;;17.05;76.84;97206.03;29395;221;63023;-66
2021/07/19 02:04:58;;;;;;;0.40;0.40;;;;;;;17.04;76.93;97198.94;29394;240;64009;-68
2021/07/19 02:05:29;;;;;;;0.40;0.40;;;;;;;17.04;76.97;97198.94;29395;273;63009;-68
2021/07/19 02:06:04;;;;;;;0.40;0.40;;;;;;;17.04;76.75;97204.41;29395;202;63012;-67
2021/07/19 02:06:39;;;;;;;0.40;0.40;;;;;;;17.04;76.71;97209.88;29395;218;63009;-67
2021/07/19 02:07:11;;;;;;;0.40;0.40;;;;;;;17.04;76.69;97205.22;29395;238;63004;-67
2021/07/19 02:07:44;;;;;;;0.40;0.40;;;;;;;17.04;76.86;97197.00;29395;228;63009;-68
2021/07/19 02:08:17;;;;;;;0.30;0.30;;;;;;;17.05;76.48;97200.53;29395;211;63004;-67
2021/07/19 02:08:54;;;;;;;0.40;0.40;;;;;;;17.05;76.79;97200.53;29394;208;64013;-67
2021/07/19 02:09:26;;;;;;;0.40;0.40;;;;;;;17.05;76.88;97200.53;29394;375;64008;-68
2021/07/19 02:09:58;;;;;;;0.30;0.30;;;;;;;17.05;76.64;97208.75;29394;237;64014;-67
2021/07/19 02:10:31;;;;;;;0.30;0.30;;;;;;;17.06;76.32;97202.16;29395;272;63015;-67
2021/07/19 02:11:03;;;;;;;0.35;0.35;;;;;;;17.05;76.51;97208.75;29395;225;63024;-68
2021/07/19 02:11:35;;;;;;;0.40;0.40;;;;;;;17.04;76.69;97207.97;29394;202;64009;-68
2021/07/19 02:12:09;;;;;;;0.40;0.40;;;;;;;17.03;76.66;97209.09;29394;311;64013;-68
2021/07/19 02:12:44;;;;;;;0.30;0.30;;;;;;;17.04;76.41;97210.69;29394;307;64009;-68
2021/07/19 02:13:16;;;;;;;0.40;0.40;;;;;;;17.04;76.56;97215.38;29395;232;63005;-67
2021/07/19 02:13:48;;;;;;;0.30;0.30;;;;;;;17.04;76.55;97215.38;29395;212;63005;-68
2021/07/19 02:14:22;;;;;;;0.40;0.40;;;;;;;17.04;76.63;97210.69;29395;204;63009;-67
2021/07/19 02:14:54;;;;;;;0.40;0.40;;;;;;;17.03;76.72;97213.75;29395;223;63004;-67
2021/07/19 02:15:26;;;;;;;0.40;0.40;;;;;;;17.02;76.82;97212.97;29395;262;63009;-68
2021/07/19 02:15:59;;;;;;;0.40;0.40;;;;;;;17.00;76.63;97215.22;29395;222;63004;-67
2021/07/19 02:16:32;;;;;;;0.40;0.40;;;;;;;17.00;76.79;97211.69;29395;278;63008;-69
2021/07/19 02:17:06;;;;;;;0.40;0.40;;;;;;;17.00;77.09;97214.41;29394;220;64008;-61
2021/07/19 02:17:38;;;;;;;0.40;0.40;;;;;;;17.00;76.92;97211.69;29395;204;63009;-67
2021/07/19 02:18:13;;;;;;;0.40;0.40;;;;;;;17.00;77.00;97211.69;29395;234;63005;-67
2021/07/19 02:18:46;;;;;;;0.30;0.30;;;;;;;16.99;76.84;97210.06;29395;222;63009;-66
2021/07/19 02:19:18;;;;;;;0.40;0.40;;;;;;;16.98;78.04;97219.44;29394;332;64009;-68
2021/07/19 02:19:52;;;;;;;0.40;0.40;;;;;;;16.93;78.31;97209.47;29394;204;64001;-68
2021/07/19 02:20:25;;;;;;;0.30;0.30;;;;;;;16.91;77.77;97210.91;29394;220;64009;-69
2021/07/19 02:21:04;;;;;;;0.40;0.40;;;;;;;16.89;77.56;97205.75;29395;211;63009;-67
2021/07/19 02:21:36;;;;;;;0.40;0.40;;;;;;;16.90;77.78;97206.56;29395;223;63004;-68
2021/07/19 02:22:09;;;;;;;0.30;0.30;;;;;;;16.89;77.80;97213.97;29395;212;63009;-68
2021/07/19 02:22:43;;;;;;;0.30;0.30;;;;;;;16.89;77.46;97210.44;29395;207;63004;-67
2021/07/19 02:23:16;;;;;;;0.40;0.40;;;;;;;16.89;77.52;97213.97;29395;211;63024;-68
2021/07/19 02:23:49;;;;;;;0.30;0.30;;;;;;;16.89;77.63;97213.16;29395;237;63004;-67
2021/07/19 02:24:26;;;;;;;0.40;0.40;;;;;;;16.90;77.80;97209.31;29394;209;64013;-67
2021/07/19 02:24:57;;;;;;;0.30;0.30;;;;;;;16.89;77.76;97213.16;29395;203;63005;-67
2021/07/19 02:25:29;;;;;;;0.30;0.30;;;;;;;16.89;77.69;97211.22;29395;240;63009;-67
2021/07/19 02:26:03;;;;;;;0.40;0.40;;;;;;;16.90;77.63;97214.78;29395;197;63005;-67
2021/07/19 02:26:35;;;;;;;0.40;0.40;;;;;;;16.89;77.55;97213.16;29394;334;64013;-67
2021/07/19 02:27:07;;;;;;;0.37;0.37;;;;;;;16.89;78.16;97213.16;29395;219;63005;-67
2021/07/19 02:27:42;;;;;;;0.40;0.40;;;;;;;16.87;78.21;97216.25;29395;259;63009;-67
2021/07/19 02:28:14;;;;;;;0.30;0.30;;;;;;;16.85;77.81;97213.00;29395;219;63005;-67
2021/07/19 02:28:46;;;;;;;0.30;0.30;;;;;;;16.87;78.15;97212.69;29395;211;63009;-68
2021/07/19 02:29:19;;;;;;;0.37;0.37;;;;;;;16.86;77.81;97219.31;29395;220;63004;-68
2021/07/19 02:29:51;;;;;;;0.30;0.30;;;;;;;16.86;78.27;97213.81;29394;220;64013;-66
2021/07/19 02:30:24;;;;;;;0.40;0.40;;;;;;;16.84;78.98;97216.06;29395;272;63004;-67
2021/07/19 02:30:58;;;;;;;0.40;0.40;;;;;;;16.80;79.50;97220.59;29394;209;64002;-69
2021/07/19 02:31:31;;;;;;;0.40;0.40;;;;;;;16.75;78.80;97214.16;29394;228;64009;-67
2021/07/19 02:32:03;;;;;;;0.40;0.40;;;;;;;16.75;78.72;97214.16;29395;216;63008;-67
2021/07/19 02:32:40;;;;;;;0.40;0.40;;;;;;;16.74;78.62;97218.03;29395;240;63005;-68
2021/07/19 02:33:12;;;;;;;0.40;0.40;;;;;;;16.75;78.55;97214.16;29395;359;63009;-67
2021/07/19 02:33:47;;;;;;;0.40;0.40;;;;;;;16.75;78.87;97213.34;29395;222;63005;-67
2021/07/19 02:34:20;;;;;;;0.40;0.40;;;;;;;16.73;78.57;97210.94;29395;287;63009;-67
2021/07/19 02:34:51;;;;;;;0.40;0.40;;;;;;;16.73;78.63;97216.41;29395;213;63018;-69
2021/07/19 02:35:25;;;;;;;0.37;0.37;;;;;;;16.73;78.67;97210.13;29395;229;63009;-66
2021/07/19 02:35:57;;;;;;;0.30;0.30;;;;;;;16.74;78.43;97214.47;29395;240;63005;-68
2021/07/19 02:36:30;;;;;;;0.30;0.30;;;;;;;16.73;78.61;97216.41;29394;256;64013;-68
2021/07/19 02:37:01;;;;;;;0.30;0.30;;;;;;;16.73;78.28;97208.19;29395;378;63004;-69
2021/07/19 02:37:41;;;;;;;0.30;0.30;;;;;;;16.73;78.38;97213.66;29395;197;63009;-67
2021/07/19 02:38:14;;;;;;;0.40;0.40;;;;;;;16.74;78.28;97211.72;29395;249;63004;-60
2021/07/19 02:38:50;;;;;;;0.30;0.30;;;;;;;16.72;78.37;97206.56;29395;323;63009;-67
2021/07/19 02:39:23;;;;;;;0.40;0.40;;;;;;;16.72;78.47;97206.56;29395;288;63007;-68
2021/07/19 02:39:55;;;;;;;0.40;0.40;;;;;;;16.72;78.54;97209.31;29395;215;63009;-69
2021/07/19 02:40:26;;;;;;;0.30;0.30;;;;;;;16.72;78.62;97208.50;29395;197;63005;-68
2021/07/19 02:41:00;;;;;;;0.30;0.30;;;;;;;16.71;78.61;97204.97;29394;214;64014;-67
2021/07/19 02:41:33;;;;;;;0.30;0.30;;;;;;;16.69;78.38;97209.97;29395;243;63005;-69